Time;durP1;ratioP1;P1;durP2;ratioP2;P2;SDS_P1;SDS_P2;PMS_P1;PMS_P2;Temp;Humidity;BMP_temperature;BMP_pressure;BME280_temperature;BME280_humidity;BME280_pressure;Samples;Min_cycle;Max_cycle;Signal;HPM_P1;HPM_P2
2022/03/26 00:02:17;;;;;;;127.05;67.03;;;7.50;99.90;;;;;;5112991;28;20488;-62
2022/03/26 00:04:43;;;;;;;125.25;64.97;;;7.50;99.90;;;;;;5113079;28;20086;-63
2022/03/26 00:07:09;;;;;;;124.50;66.68;;;7.40;99.90;;;;;;5094252;28;20137;-62
2022/03/26 00:09:35;;;;;;;116.35;62.65;;;7.40;99.90;;;;;;5094494;28;20130;-63
2022/03/26 00:12:02;;;;;;;121.22;63.03;;;7.30;99.90;;;;;;5112838;28;20047;-63
2022/03/26 00:14:28;;;;;;;130.27;65.68;;;7.30;99.90;;;;;;5095216;28;20124;-65
2022/03/26 00:16:54;;;;;;;120.20;62.55;;;7.30;99.90;;;;;;5113171;28;20435;-63
2022/03/26 00:19:20;;;;;;;116.22;60.53;;;7.20;99.90;;;;;;5112600;28;20044;-63
2022/03/26 00:21:48;;;;;;;116.78;61.92;;;7.40;99.90;;;;;;5113046;28;20370;-63
2022/03/26 00:24:14;;;;;;;118.22;61.80;;;7.20;99.90;;;;;;5094096;28;20043;-66
2022/03/26 00:26:40;;;;;;;122.53;61.13;;;7.30;99.90;;;;;;5112746;28;20489;-63
2022/03/26 00:29:08;;;;;;;123.80;63.88;;;7.20;99.90;;;;;;5094300;28;20043;-63
2022/03/26 00:31:34;;;;;;;128.45;66.93;;;7.20;99.90;;;;;;5112685;28;20074;-64
2022/03/26 00:34:00;;;;;;;125.43;62.53;;;7.10;99.90;;;;;;5112365;28;20036;-70
2022/03/26 00:36:26;;;;;;;120.15;61.10;;;7.10;99.90;;;;;;5112493;28;20532;-63
2022/03/26 00:38:52;;;;;;;125.97;65.53;;;7.10;99.90;;;;;;5112778;28;20128;-62
2022/03/26 00:41:18;;;;;;;122.65;64.10;;;7.10;99.90;;;;;;5112141;28;20220;-63
2022/03/26 00:43:44;;;;;;;121.70;61.42;;;7.00;99.90;;;;;;5094408;28;20043;-63
2022/03/26 00:46:13;;;;;;;126.20;63.03;;;7.10;99.90;;;;;;5077020;28;20063;-63
2022/03/26 00:48:39;;;;;;;123.28;64.05;;;7.10;99.90;;;;;;5112337;28;20500;-63
2022/03/26 00:51:04;;;;;;;128.30;65.82;;;7.00;99.90;;;;;;5111928;28;20087;-63
2022/03/26 00:53:30;;;;;;;126.32;64.80;;;7.00;99.90;;;;;;5112417;28;20376;-62
2022/03/26 00:55:56;;;;;;;127.30;68.85;;;7.00;99.90;;;;;;5077284;28;20109;-65
2022/03/26 00:58:22;;;;;;;133.07;66.65;;;7.00;99.90;;;;;;5111971;28;20043;-63
2022/03/26 01:00:48;;;;;;;131.85;66.68;;;7.00;99.90;;;;;;5094173;28;20400;-63
2022/03/26 01:03:16;;;;;;;134.38;67.28;;;7.00;99.90;;;;;;5111752;28;20048;-63
2022/03/26 01:05:43;;;;;;;131.90;65.75;;;7.00;99.90;;;;;;5112286;28;20338;-62
2022/03/26 01:08:09;;;;;;;136.02;68.43;;;7.00;99.90;;;;;;5111782;28;20097;-62
2022/03/26 01:10:34;;;;;;;124.70;63.80;;;7.00;99.90;;;;;;5112060;28;20492;-64
2022/03/26 01:13:00;;;;;;;135.27;66.43;;;7.00;99.90;;;;;;5111954;28;20401;-63
2022/03/26 01:15:26;;;;;;;132.60;68.65;;;7.00;99.90;;;;;;5111768;28;20055;-63
2022/03/26 01:17:52;;;;;;;143.07;69.10;;;7.00;99.90;;;;;;5111942;28;20051;-62
2022/03/26 01:20:18;;;;;;;126.90;65.22;;;7.00;99.90;;;;;;5111564;28;20185;-62
2022/03/26 01:22:44;;;;;;;131.18;66.63;;;6.90;99.90;;;;;;5111822;28;20051;-61
2022/03/26 01:25:11;;;;;;;133.10;67.50;;;6.90;99.90;;;;;;5111443;28;20087;-62
2022/03/26 01:27:37;;;;;;;145.23;68.07;;;6.90;99.90;;;;;;5111468;28;20048;-63
2022/03/26 01:30:04;;;;;;;142.43;69.88;;;6.90;99.90;;;;;;5093680;28;20047;-64
2022/03/26 01:32:31;;;;;;;138.50;70.10;;;6.90;99.90;;;;;;5111447;28;20047;-63
2022/03/26 01:34:57;;;;;;;140.32;72.10;;;7.00;99.90;;;;;;5111729;28;20551;-63
2022/03/26 01:37:24;;;;;;;139.68;71.90;;;6.90;99.90;;;;;;5076128;28;20074;-62
2022/03/26 01:39:50;;;;;;;140.13;70.90;;;6.90;99.90;;;;;;5093770;28;20442;-63
2022/03/26 01:42:17;;;;;;;141.10;71.50;;;6.90;99.90;;;;;;5076120;28;20124;-62
2022/03/26 01:44:43;;;;;;;144.20;73.20;;;7.00;99.90;;;;;;5111490;28;20036;-63
2022/03/26 01:47:09;;;;;;;143.63;68.53;;;6.90;99.90;;;;;;5111165;28;20093;-67
2022/03/26 01:49:35;;;;;;;149.40;74.85;;;6.90;99.90;;;;;;5111741;28;20429;-64
2022/03/26 01:52:03;;;;;;;154.90;75.00;;;7.00;99.90;;;;;;5111338;28;20197;-63
2022/03/26 01:54:29;;;;;;;135.27;68.18;;;6.90;99.90;;;;;;5110993;28;20036;-65
2022/03/26 01:56:56;;;;;;;143.18;69.72;;;7.00;99.90;;;;;;5093325;28;20511;-62
2022/03/26 01:59:25;;;;;;;138.35;69.70;;;7.00;99.90;;;;;;5111252;28;20210;-62
2022/03/26 02:01:51;;;;;;;148.60;72.57;;;7.00;99.90;;;;;;5093408;28;20039;-63
2022/03/26 02:04:17;;;;;;;139.20;70.28;;;7.00;99.90;;;;;;5092631;28;20516;-62
2022/03/26 02:06:42;;;;;;;144.68;71.50;;;7.00;99.90;;;;;;5093251;28;20051;-61
2022/03/26 02:09:14;;;;;;;144.95;71.13;;;7.00;99.90;;;;;;5111343;28;20400;-61
2022/03/26 02:11:42;;;;;;;144.02;71.35;;;7.00;99.90;;;;;;5110897;28;20066;-62
2022/03/26 02:14:09;;;;;;;141.52;70.63;;;7.00;99.90;;;;;;5111302;28;20392;-62
2022/03/26 02:16:37;;;;;;;140.55;68.03;;;7.10;99.90;;;;;;5111183;28;20087;-65
2022/03/26 02:19:05;;;;;;;147.80;70.30;;;7.00;99.90;;;;;;5111508;28;20452;-62
2022/03/26 02:21:34;;;;;;;136.30;69.25;;;7.00;99.90;;;;;;5110657;28;20546;-63
2022/03/26 02:24:00;;;;;;;148.50;71.55;;;7.10;99.90;;;;;;5093111;28;20043;-63
2022/03/26 02:26:26;;;;;;;138.57;66.65;;;6.90;99.90;;;;;;5110651;28;20063;-62
2022/03/26 02:28:53;;;;;;;137.40;69.18;;;6.90;99.90;;;;;;5111283;28;20424;-62
2022/03/26 02:31:20;;;;;;;137.13;66.78;;;6.90;99.90;;;;;;5092653;28;20051;-62
2022/03/26 02:33:46;;;;;;;135.32;68.60;;;6.90;99.90;;;;;;5111214;28;20393;-62
2022/03/26 02:36:12;;;;;;;154.18;73.40;;;6.90;99.90;;;;;;5093115;28;20667;-69
2022/03/26 02:38:39;;;;;;;138.10;69.20;;;6.90;99.90;;;;;;5112943;28;20043;-62
2022/03/26 02:41:05;;;;;;;135.43;68.90;;;6.80;99.90;;;;;;5114971;28;20043;-63
2022/03/26 02:43:31;;;;;;;133.93;68.57;;;6.80;99.90;;;;;;5096469;28;20127;-62
2022/03/26 02:45:57;;;;;;;133.15;66.65;;;6.80;99.90;;;;;;5114978;28;20130;-63
2022/03/26 02:48:23;;;;;;;143.20;69.60;;;6.70;99.90;;;;;;5114544;28;20395;-62
2022/03/26 02:50:49;;;;;;;136.57;68.90;;;6.70;99.90;;;;;;5114818;28;20043;-62
2022/03/26 02:53:15;;;;;;;143.65;68.35;;;6.70;99.90;;;;;;5096570;28;20404;-69
2022/03/26 02:55:41;;;;;;;137.20;70.10;;;6.60;99.90;;;;;;5096422;28;20048;-63
2022/03/26 02:58:08;;;;;;;146.88;71.40;;;6.60;99.90;;;;;;5114759;28;20047;-62
2022/03/26 03:00:35;;;;;;;134.00;68.35;;;6.60;99.90;;;;;;5095971;28;20105;-62
2022/03/26 03:03:01;;;;;;;147.55;70.43;;;6.70;99.90;;;;;;5114544;28;20055;-62
2022/03/26 03:05:27;;;;;;;143.38;73.65;;;6.50;99.90;;;;;;5114263;28;20462;-62
2022/03/26 03:07:53;;;;;;;142.82;71.40;;;6.50;99.90;;;;;;5114588;28;20047;-64
2022/03/26 03:10:20;;;;;;;152.50;76.00;;;6.60;99.90;;;;;;5095694;28;20483;-69
2022/03/26 03:12:47;;;;;;;139.63;72.15;;;6.60;99.90;;;;;;5114687;28;20477;-63
2022/03/26 03:15:15;;;;;;;142.63;72.15;;;6.60;99.90;;;;;;5114615;28;20043;-65
2022/03/26 03:17:42;;;;;;;148.25;72.47;;;6.50;99.90;;;;;;5096145;28;20043;-62
2022/03/26 03:20:09;;;;;;;150.07;74.38;;;6.50;99.90;;;;;;5114046;28;20494;-65
2022/03/26 03:22:36;;;;;;;147.85;72.80;;;6.50;99.90;;;;;;5113960;28;20048;-62
2022/03/26 03:25:03;;;;;;;148.38;75.13;;;6.50;99.90;;;;;;5114362;28;20040;-62
2022/03/26 03:27:29;;;;;;;150.80;74.28;;;6.50;99.90;;;;;;5114037;28;20155;-62
2022/03/26 03:29:54;;;;;;;152.07;72.07;;;6.50;99.90;;;;;;5114174;28;20100;-62
2022/03/26 03:32:20;;;;;;;146.25;75.35;;;6.40;99.90;;;;;;5114171;28;20039;-69
2022/03/26 03:34:46;;;;;;;154.80;72.90;;;6.40;99.90;;;;;;5114071;28;20122;-62
2022/03/26 03:37:12;;;;;;;139.73;70.43;;;6.40;99.90;;;;;;5096208;28;20537;-62
2022/03/26 03:39:38;;;;;;;142.00;71.75;;;6.40;99.90;;;;;;5113617;28;20039;-63
2022/03/26 03:42:04;;;;;;;148.18;71.90;;;6.30;99.90;;;;;;5114133;28;20083;-64
2022/03/26 03:44:30;;;;;;;145.57;72.93;;;6.30;99.90;;;;;;5113596;28;20054;-65
2022/03/26 03:46:56;;;;;;;144.18;73.85;;;6.20;99.90;;;;;;5095830;28;20043;-61
2022/03/26 03:49:22;;;;;;;146.75;73.03;;;6.20;99.90;;;;;;5113258;28;20070;-69
2022/03/26 03:51:49;;;;;;;148.63;74.95;;;6.10;99.90;;;;;;5113643;28;20043;-62
2022/03/26 03:54:15;;;;;;;151.93;76.95;;;6.10;99.90;;;;;;5113779;28;20044;-64
2022/03/26 03:56:41;;;;;;;151.07;75.78;;;6.10;99.90;;;;;;5113431;28;20096;-62
2022/03/26 03:59:07;;;;;;;144.35;72.22;;;6.10;99.90;;;;;;5113665;28;20048;-62
2022/03/26 04:01:33;;;;;;;137.20;70.03;;;6.00;99.90;;;;;;5078384;28;20050;-64
2022/03/26 04:04:00;;;;;;;139.80;71.80;;;6.00;99.90;;;;;;5095334;28;20362;-63
2022/03/26 04:06:26;;;;;;;140.93;73.80;;;6.00;99.90;;;;;;5113389;28;20125;-70
2022/03/26 04:08:51;;;;;;;141.75;71.82;;;5.90;99.90;;;;;;5113472;28;20043;-63
2022/03/26 04:11:17;;;;;;;149.77;72.95;;;5.90;99.90;;;;;;5113490;28;20453;-63
2022/03/26 04:13:43;;;;;;;142.88;74.07;;;5.90;99.90;;;;;;5112928;28;20051;-62
2022/03/26 04:16:09;;;;;;;150.48;72.20;;;5.90;99.90;;;;;;5113453;28;20097;-62
2022/03/26 04:18:34;;;;;;;140.68;69.85;;;5.90;99.90;;;;;;5094681;28;20135;-62
2022/03/26 04:21:00;;;;;;;141.98;73.55;;;5.90;99.90;;;;;;5113432;28;20083;-62
2022/03/26 04:23:26;;;;;;;144.50;73.63;;;5.90;99.90;;;;;;5094946;28;20035;-62
2022/03/26 04:25:52;;;;;;;162.90;79.95;;;6.00;99.90;;;;;;5077980;28;20114;-62
2022/03/26 04:28:18;;;;;;;150.82;76.93;;;6.00;99.90;;;;;;5113089;28;20052;-62
2022/03/26 04:30:44;;;;;;;148.27;75.50;;;6.00;99.90;;;;;;5094368;28;20066;-63
2022/03/26 04:33:10;;;;;;;149.80;74.40;;;6.00;99.90;;;;;;5095012;28;20054;-64
2022/03/26 04:35:35;;;;;;;160.63;77.32;;;6.00;99.90;;;;;;5112695;28;20127;-61
2022/03/26 04:38:02;;;;;;;148.88;74.68;;;6.00;99.90;;;;;;5112971;28;20393;-61
2022/03/26 04:40:28;;;;;;;159.75;75.30;;;6.00;99.90;;;;;;5094762;28;20047;-62
2022/03/26 04:42:55;;;;;;;141.70;69.47;;;6.10;99.90;;;;;;5112567;28;20097;-62
2022/03/26 04:45:23;;;;;;;148.73;73.15;;;6.00;99.90;;;;;;5112784;28;20477;-62
2022/03/26 04:47:48;;;;;;;138.82;72.07;;;6.00;99.90;;;;;;5112399;28;20047;-62
2022/03/26 04:50:14;;;;;;;138.65;70.20;;;6.00;99.90;;;;;;5077791;28;20184;-63
2022/03/26 04:52:40;;;;;;;141.95;68.13;;;6.00;99.90;;;;;;5112339;28;20043;-61
2022/03/26 04:55:11;;;;;;;146.25;72.75;;;5.90;99.90;;;;;;5112329;28;20489;-62
2022/03/26 04:57:44;;;;;;;139.35;69.50;;;5.90;99.90;;;;;;5094016;28;20044;-62
2022/03/26 05:00:13;;;;;;;137.65;68.78;;;5.90;99.90;;;;;;5094057;28;20184;-62
2022/03/26 05:02:39;;;;;;;136.35;67.88;;;5.80;99.90;;;;;;5093500;28;20126;-62
2022/03/26 05:05:09;;;;;;;137.82;69.28;;;5.80;99.90;;;;;;5112234;28;20066;-62
2022/03/26 05:07:48;;;;;;;139.80;70.53;;;5.90;99.90;;;;;;5112123;28;20048;-69
2022/03/26 05:10:21;;;;;;;133.02;66.57;;;5.80;99.90;;;;;;5111995;28;20059;-62
2022/03/26 05:12:49;;;;;;;139.07;68.78;;;5.80;99.90;;;;;;5093862;28;20091;-62
2022/03/26 05:15:17;;;;;;;138.82;68.53;;;5.90;99.90;;;;;;5112407;28;20047;-62
2022/03/26 05:17:43;;;;;;;129.75;67.15;;;5.90;99.90;;;;;;5093715;28;20043;-62
2022/03/26 05:20:10;;;;;;;130.23;65.47;;;5.90;99.90;;;;;;5112195;28;20056;-62
2022/03/26 05:22:36;;;;;;;131.20;67.13;;;5.90;99.90;;;;;;5093508;28;20131;-70
2022/03/26 05:25:02;;;;;;;122.72;62.95;;;5.90;99.90;;;;;;5111516;28;20556;-62
2022/03/26 05:27:28;;;;;;;127.30;61.58;;;5.90;99.90;;;;;;5111673;28;20138;-62
2022/03/26 05:29:54;;;;;;;131.55;65.95;;;5.90;99.90;;;;;;5111351;28;20051;-64
2022/03/26 05:32:19;;;;;;;129.80;63.17;;;5.90;99.90;;;;;;5111715;28;20046;-64
2022/03/26 05:34:45;;;;;;;128.50;63.85;;;5.90;99.90;;;;;;5093388;28;20047;-63
2022/03/26 05:37:12;;;;;;;119.38;62.95;;;5.90;99.90;;;;;;5111804;28;20058;-62
2022/03/26 05:39:38;;;;;;;120.30;59.80;;;5.90;99.90;;;;;;5111615;28;20105;-69
2022/03/26 05:42:05;;;;;;;120.32;60.35;;;5.90;99.90;;;;;;5093282;28;20508;-62
2022/03/26 05:44:31;;;;;;;122.32;58.50;;;6.00;99.90;;;;;;5111350;28;20508;-62
2022/03/26 05:46:57;;;;;;;126.72;62.03;;;6.00;99.90;;;;;;5111330;28;20039;-62
2022/03/26 05:49:24;;;;;;;109.32;57.35;;;6.00;99.90;;;;;;5111683;28;20135;-62
2022/03/26 05:51:50;;;;;;;119.07;58.35;;;6.10;99.90;;;;;;5111217;28;20066;-63
2022/03/26 05:54:15;;;;;;;115.50;57.78;;;6.20;99.90;;;;;;5111419;28;20047;-63
2022/03/26 05:56:51;;;;;;;110.45;55.83;;;6.30;99.90;;;;;;5093447;28;20047;-69
2022/03/26 05:59:23;;;;;;;115.55;56.72;;;6.40;99.90;;;;;;5093771;28;20058;-62
2022/03/26 06:01:50;;;;;;;115.03;57.97;;;6.70;99.90;;;;;;5110895;28;20526;-63
2022/03/26 06:04:16;;;;;;;104.40;51.83;;;7.10;99.90;;;;;;5111454;28;20089;-62
2022/03/26 06:06:43;;;;;;;107.30;52.60;;;7.40;99.90;;;;;;5111070;28;20048;-69
2022/03/26 06:09:10;;;;;;;107.45;52.72;;;7.50;99.90;;;;;;5111329;28;20054;-63
2022/03/26 06:11:36;;;;;;;108.53;54.25;;;7.50;99.90;;;;;;5111181;28;20108;-64
2022/03/26 06:14:02;;;;;;;103.53;53.58;;;7.40;99.90;;;;;;5097213;28;20080;-62
2022/03/26 06:16:29;;;;;;;108.03;54.05;;;7.30;99.90;;;;;;5080918;28;20389;-63
2022/03/26 06:18:54;;;;;;;104.75;54.40;;;7.30;99.90;;;;;;5097286;28;20043;-62
2022/03/26 06:21:20;;;;;;;109.10;56.20;;;7.30;99.90;;;;;;5115628;28;20454;-62
2022/03/26 06:23:46;;;;;;;107.32;54.47;;;7.30;99.90;;;;;;5097093;28;20108;-63
2022/03/26 06:26:12;;;;;;;100.20;53.50;;;7.30;99.90;;;;;;5115368;28;20496;-62
2022/03/26 06:28:38;;;;;;;106.68;54.53;;;7.30;99.90;;;;;;5097399;28;20051;-65
2022/03/26 06:31:04;;;;;;;108.88;53.60;;;7.30;99.90;;;;;;5097051;28;20135;-62
2022/03/26 06:33:30;;;;;;;103.15;56.13;;;7.40;99.90;;;;;;5115560;28;20096;-62
2022/03/26 06:35:56;;;;;;;103.28;55.38;;;7.40;99.90;;;;;;5114815;28;20047;-66
2022/03/26 06:38:22;;;;;;;107.30;55.33;;;7.50;99.90;;;;;;5080244;28;20052;-63
2022/03/26 06:40:48;;;;;;;103.18;54.90;;;7.60;99.90;;;;;;5114824;28;20047;-68
2022/03/26 06:43:14;;;;;;;98.68;54.58;;;7.60;99.90;;;;;;5097028;28;20496;-63
2022/03/26 06:45:40;;;;;;;105.55;54.30;;;7.60;99.90;;;;;;5080195;28;20092;-65
2022/03/26 06:48:07;;;;;;;102.47;56.25;;;7.70;99.90;;;;;;5114806;28;20044;-62
2022/03/26 06:50:33;;;;;;;103.35;52.97;;;7.80;99.90;;;;;;5115035;28;20047;-62
2022/03/26 06:52:59;;;;;;;98.97;53.25;;;8.20;99.90;;;;;;5114803;28;20055;-63
2022/03/26 06:55:29;;;;;;;96.82;51.65;;;8.60;99.90;;;;;;5115174;28;20043;-62
2022/03/26 06:57:55;;;;;;;96.85;53.67;;;9.10;99.90;;;;;;5096343;28;20090;-63
2022/03/26 07:00:21;;;;;;;92.13;51.53;;;9.80;99.90;;;;;;5096841;28;20079;-63
2022/03/26 07:02:46;;;;;;;87.95;51.53;;;10.40;99.90;;;;;;5062808;28;20050;-63
2022/03/26 07:05:12;;;;;;;95.30;49.97;;;11.00;99.90;;;;;;5114330;28;20047;-63
2022/03/26 07:07:38;;;;;;;86.80;52.63;;;11.40;99.90;;;;;;5114866;28;20422;-63
2022/03/26 07:10:05;;;;;;;93.47;52.80;;;11.70;99.90;;;;;;5113972;28;20087;-68
2022/03/26 07:12:30;;;;;;;89.03;51.38;;;11.80;99.90;;;;;;5114967;28;20059;-63
2022/03/26 07:14:57;;;;;;;84.40;52.13;;;12.10;99.90;;;;;;5114317;28;20036;-61
2022/03/26 07:17:23;;;;;;;80.97;49.20;;;12.50;99.90;;;;;;5114765;28;20463;-63
2022/03/26 07:19:51;;;;;;;83.28;49.78;;;12.80;99.90;;;;;;5096368;28;20131;-64
2022/03/26 07:22:18;;;;;;;79.10;49.28;;;13.30;99.90;;;;;;5114355;28;20138;-63
2022/03/26 07:24:43;;;;;;;78.65;48.17;;;13.80;99.90;;;;;;5113717;28;20047;-64
2022/03/26 07:27:09;;;;;;;76.18;47.63;;;14.20;99.90;;;;;;5114056;28;20043;-63
2022/03/26 07:29:39;;;;;;;76.70;47.30;;;14.70;99.90;;;;;;5095923;28;20556;-63
2022/03/26 07:32:11;;;;;;;77.93;49.42;;;15.20;99.90;;;;;;5096419;28;20048;-63
2022/03/26 07:34:37;;;;;;;75.70;47.33;;;15.40;99.90;;;;;;5079636;28;20054;-63
2022/03/26 07:37:03;;;;;;;69.05;45.08;;;15.60;99.90;;;;;;5113959;28;20044;-63
2022/03/26 07:39:29;;;;;;;71.63;47.67;;;15.90;99.90;;;;;;5114206;28;20185;-63
2022/03/26 07:41:54;;;;;;;69.25;44.90;;;16.40;99.90;;;;;;5113825;28;20138;-71
2022/03/26 07:44:20;;;;;;;68.97;45.17;;;16.90;99.90;;;;;;5095781;28;20122;-63
2022/03/26 07:46:46;;;;;;;62.33;44.28;;;17.60;99.90;;;;;;5095886;28;20137;-63
2022/03/26 07:49:12;;;;;;;66.78;45.03;;;18.20;99.00;;;;;;5113164;28;20044;-62
2022/03/26 07:51:37;;;;;;;66.90;45.20;;;18.50;97.60;;;;;;5095513;28;20108;-62
2022/03/26 07:54:03;;;;;;;66.47;44.67;;;19.10;96.50;;;;;;5113479;28;20142;-64
2022/03/26 07:56:29;;;;;;;62.70;44.85;;;19.30;95.70;;;;;;5114004;28;20132;-63
2022/03/26 07:58:57;;;;;;;67.25;45.30;;;19.30;94.80;;;;;;5062164;28;20056;-62
2022/03/26 08:01:23;;;;;;;59.70;43.67;;;19.50;95.60;;;;;;5113793;28;20084;-63
2022/03/26 08:03:54;;;;;;;64.45;43.50;;;19.70;95.60;;;;;;5113599;28;20462;-64
2022/03/26 08:06:21;;;;;;;59.17;43.05;;;20.10;94.40;;;;;;5095869;28;20044;-62
2022/03/26 08:08:47;;;;;;;56.78;44.38;;;20.30;93.50;;;;;;5078615;28;20047;-63
2022/03/26 08:11:13;;;;;;;59.92;43.78;;;20.40;93.80;;;;;;5112965;28;20067;-62
2022/03/26 08:13:40;;;;;;;54.15;41.17;;;20.40;93.80;;;;;;5113153;28;20055;-63
2022/03/26 08:16:08;;;;;;;56.25;41.15;;;20.30;93.30;;;;;;5095179;28;20492;-65
2022/03/26 08:18:35;;;;;;;60.45;43.10;;;20.40;93.30;;;;;;5113390;28;20053;-65
2022/03/26 08:21:01;;;;;;;59.30;41.85;;;20.40;93.20;;;;;;5094578;28;20473;-69
2022/03/26 08:23:26;;;;;;;54.55;41.85;;;20.80;93.50;;;;;;5113373;28;20044;-61
2022/03/26 08:28:37;;;;;;;52.55;40.25;;;20.60;92.80;;;;;;5113180;28;20130;-63
2022/03/26 08:31:03;;;;;;;53.55;40.35;;;20.40;93.70;;;;;;5077552;28;20524;-64
2022/03/26 08:33:29;;;;;;;53.22;41.50;;;20.60;93.50;;;;;;5094796;28;20039;-62
2022/03/26 08:35:55;;;;;;;51.90;38.60;;;20.90;93.10;;;;;;5111873;28;20511;-62
2022/03/26 08:38:21;;;;;;;48.05;38.38;;;21.10;93.20;;;;;;5094490;28;20100;-65
2022/03/26 08:40:48;;;;;;;46.72;37.72;;;21.30;92.60;;;;;;5094248;28;20126;-63
2022/03/26 08:43:15;;;;;;;51.03;38.95;;;21.20;92.20;;;;;;5094445;28;20063;-63
2022/03/26 08:45:41;;;;;;;49.10;37.78;;;21.40;92.00;;;;;;5112795;28;20039;-63
2022/03/26 08:48:08;;;;;;;52.30;39.25;;;21.70;92.50;;;;;;5112364;28;20531;-63
2022/03/26 08:50:34;;;;;;;51.45;37.97;;;22.00;91.80;;;;;;5112778;28;20443;-64
2022/03/26 08:53:00;;;;;;;47.42;36.38;;;22.20;91.50;;;;;;5078008;28;20477;-63
2022/03/26 08:55:26;;;;;;;47.35;35.80;;;22.30;91.00;;;;;;5112313;28;20058;-63
2022/03/26 08:57:52;;;;;;;42.22;32.90;;;22.50;90.60;;;;;;5094503;28;20047;-66
2022/03/26 09:00:18;;;;;;;41.58;31.70;;;22.50;90.80;;;;;;5111883;28;20120;-63
2022/03/26 09:02:44;;;;;;;37.13;31.38;;;22.90;90.70;;;;;;5112543;28;20051;-63
2022/03/26 09:05:13;;;;;;;37.95;30.80;;;23.10;88.90;;;;;;5093716;28;20077;-69
2022/03/26 09:07:40;;;;;;;39.83;31.70;;;23.00;88.40;;;;;;5112617;28;20070;-64
2022/03/26 09:10:06;;;;;;;40.40;31.60;;;22.90;90.10;;;;;;5093626;28;20150;-73
2022/03/26 09:12:33;;;;;;;40.90;33.72;;;23.30;88.50;;;;;;5112461;28;20086;-66
2022/03/26 09:14:59;;;;;;;34.53;30.40;;;23.60;87.00;;;;;;5112356;28;20108;-67
2022/03/26 09:17:25;;;;;;;37.08;28.13;;;23.70;86.50;;;;;;5111775;28;20080;-62
2022/03/26 09:19:51;;;;;;;32.33;25.85;;;23.50;85.50;;;;;;5094004;28;20036;-63
2022/03/26 09:22:17;;;;;;;27.83;22.33;;;23.50;86.10;;;;;;5111923;28;20051;-64
2022/03/26 09:24:42;;;;;;;28.38;23.25;;;23.10;84.90;;;;;;5112248;28;20065;-66
2022/03/26 09:27:09;;;;;;;30.10;23.48;;;22.50;85.70;;;;;;5112017;28;20054;-73
2022/03/26 09:29:35;;;;;;;31.15;22.98;;;21.90;87.00;;;;;;5093990;28;20481;-62
2022/03/26 09:32:01;;;;;;;22.55;17.63;;;21.40;88.00;;;;;;5112051;28;20040;-62
2022/03/26 09:34:27;;;;;;;25.73;18.40;;;20.80;87.20;;;;;;5111204;28;20465;-62
2022/03/26 09:36:54;;;;;;;25.13;20.10;;;20.10;89.20;;;;;;5094241;28;20101;-66
2022/03/26 09:39:20;;;;;;;21.42;17.60;;;19.50;90.60;;;;;;5111258;28;20046;-64
2022/03/26 09:41:49;;;;;;;23.40;18.20;;;19.30;90.30;;;;;;5094024;28;20438;-64
2022/03/26 09:44:15;;;;;;;24.10;18.40;;;19.20;90.60;;;;;;5111476;28;20047;-63
2022/03/26 09:46:41;;;;;;;27.63;19.25;;;18.70;91.50;;;;;;5111572;28;20128;-63
2022/03/26 09:49:09;;;;;;;24.48;17.77;;;18.40;91.80;;;;;;5111663;28;20146;-62
2022/03/26 09:51:35;;;;;;;22.10;17.75;;;18.40;92.40;;;;;;5111686;28;20043;-62
2022/03/26 09:54:02;;;;;;;23.48;17.02;;;18.30;92.50;;;;;;5111790;28;20120;-63
2022/03/26 09:56:30;;;;;;;19.25;14.65;;;18.20;92.60;;;;;;5111473;28;20048;-64
2022/03/26 09:58:56;;;;;;;18.90;12.52;;;18.30;91.80;;;;;;5093700;28;20156;-62
2022/03/26 10:01:25;;;;;;;15.88;12.05;;;18.10;91.80;;;;;;5110864;28;20533;-65
2022/03/26 10:04:08;;;;;;;15.30;11.25;;;18.00;91.70;;;;;;5111650;28;20032;-63
2022/03/26 10:06:34;;;;;;;17.02;11.15;;;17.90;91.60;;;;;;5111188;28;20051;-65
2022/03/26 10:09:00;;;;;;;14.98;11.13;;;17.90;91.90;;;;;;5111241;28;20495;-62
2022/03/26 10:11:32;;;;;;;14.85;10.65;;;18.00;91.60;;;;;;5111167;28;20063;-62
2022/03/26 10:13:58;;;;;;;16.40;10.63;;;18.00;91.10;;;;;;5093356;28;20409;-62
2022/03/26 10:16:24;;;;;;;14.60;10.52;;;17.90;91.40;;;;;;5111223;28;20048;-65
2022/03/26 10:18:53;;;;;;;19.02;11.23;;;17.90;92.00;;;;;;5093084;28;20103;-63
2022/03/26 10:21:20;;;;;;;15.73;11.15;;;17.90;91.90;;;;;;5110449;28;20054;-63
2022/03/26 10:23:54;;;;;;;13.40;9.68;;;17.90;91.90;;;;;;5076203;28;20109;-62
2022/03/26 10:26:24;;;;;;;15.30;10.38;;;17.90;91.20;;;;;;5110978;28;20404;-63
2022/03/26 10:28:57;;;;;;;15.18;11.15;;;18.00;91.40;;;;;;5092968;28;20043;-62
2022/03/26 10:34:16;;;;;;;14.10;9.93;;;17.80;91.70;;;;;;5110713;28;20126;-62
2022/03/26 10:37:04;;;;;;;15.57;9.40;;;17.70;92.00;;;;;;5110559;28;20491;-68
2022/03/26 10:39:30;;;;;;;14.23;8.18;;;17.80;92.20;;;;;;5110770;28;20052;-65
2022/03/26 10:41:57;;;;;;;12.05;8.18;;;17.90;92.10;;;;;;5092922;28;20199;-63
2022/03/26 10:44:28;;;;;;;11.35;7.60;;;17.90;92.00;;;;;;5110434;28;20172;-62
2022/03/26 10:46:58;;;;;;;10.55;7.47;;;17.90;92.40;;;;;;5110837;28;20047;-65
2022/03/26 10:49:42;;;;;;;11.27;6.70;;;17.90;92.30;;;;;;5075435;28;20070;-64
2022/03/26 10:52:16;;;;;;;10.98;7.03;;;17.90;91.60;;;;;;5111235;28;20130;-62
2022/03/26 10:54:42;;;;;;;9.40;5.88;;;17.80;91.30;;;;;;5110837;28;20039;-63
2022/03/26 10:57:08;;;;;;;9.43;6.82;;;17.60;91.70;;;;;;5110717;28;20066;-62
2022/03/26 10:59:35;;;;;;;8.55;5.93;;;17.30;91.90;;;;;;5077041;28;20540;-65
2022/03/26 11:02:01;;;;;;;9.02;6.35;;;17.30;92.60;;;;;;5096676;28;20069;-62
2022/03/26 11:04:30;;;;;;;10.18;6.00;;;17.20;92.70;;;;;;5114047;28;20043;-62
2022/03/26 11:06:57;;;;;;;9.25;5.47;;;17.10;92.90;;;;;;5096446;28;20477;-64
2022/03/26 11:09:25;;;;;;;8.60;5.35;;;17.10;92.90;;;;;;5095963;28;20047;-71
2022/03/26 11:11:52;;;;;;;10.77;5.03;;;17.20;93.30;;;;;;5113945;28;20394;-63
2022/03/26 11:14:28;;;;;;;7.38;4.63;;;17.20;93.10;;;;;;5096143;28;20154;-62
2022/03/26 11:17:25;;;;;;;8.00;4.20;;;17.20;93.20;;;;;;5094086;28;20063;-67
2022/03/26 11:20:13;;;;;;;6.82;4.70;;;17.10;93.60;;;;;;5113766;28;20093;-63
2022/03/26 11:22:57;;;;;;;5.85;4.20;;;17.00;93.50;;;;;;5113866;28;20051;-62
2022/03/26 11:25:49;;;;;;;8.73;4.88;;;16.90;93.70;;;;;;5114082;28;20039;-71
2022/03/26 11:28:17;;;;;;;6.63;4.35;;;17.00;94.60;;;;;;5114082;28;20134;-62
2022/03/26 11:30:54;;;;;;;6.15;4.10;;;17.10;94.40;;;;;;5113669;28;20040;-62
2022/03/26 11:33:20;;;;;;;9.30;4.80;;;17.10;94.20;;;;;;5095169;28;20072;-62
2022/03/26 11:36:00;;;;;;;6.57;4.25;;;17.30;93.70;;;;;;5113571;28;20039;-68
2022/03/26 11:38:29;;;;;;;7.47;4.00;;;17.20;94.20;;;;;;5113031;28;20136;-73
2022/03/26 11:41:03;;;;;;;6.85;4.43;;;17.10;94.70;;;;;;5113124;28;20122;-63
2022/03/26 11:43:44;;;;;;;7.68;4.57;;;17.00;94.70;;;;;;5077898;28;20460;-64
2022/03/26 11:51:57;;;;;;;8.10;5.00;;;16.90;94.80;;;;;;5113980;28;20051;-63
2022/03/26 11:54:23;;;;;;;7.35;5.20;;;17.10;95.70;;;;;;5095637;28;20045;-63
2022/03/26 11:57:15;;;;;;;9.85;5.13;;;17.30;96.00;;;;;;5113084;28;20035;-62
2022/03/26 11:59:44;;;;;;;7.80;4.88;;;17.20;95.30;;;;;;5094295;28;20083;-63
2022/03/26 12:02:34;;;;;;;8.13;4.82;;;17.10;96.30;;;;;;5077990;28;20044;-63
2022/03/26 12:07:50;;;;;;;7.22;4.22;;;16.90;96.90;;;;;;5094796;28;20554;-63
2022/03/26 12:10:19;;;;;;;8.45;4.60;;;16.90;97.40;;;;;;5111970;28;20185;-63
2022/03/26 12:12:57;;;;;;;10.60;5.20;;;16.90;97.40;;;;;;5077982;28;20059;-63
2022/03/26 12:15:27;;;;;;;9.88;5.00;;;16.90;98.30;;;;;;5113151;28;20076;-63
2022/03/26 12:18:05;;;;;;;9.27;4.72;;;17.00;98.10;;;;;;5112389;28;20047;-62
2022/03/26 12:20:40;;;;;;;6.70;4.53;;;17.00;98.00;;;;;;5112777;28;20100;-71
2022/03/26 12:23:19;;;;;;;;;;;16.80;98.30;;;;;;5094952;28;20545;-65
2022/03/26 12:25:53;;;;;;;6.90;4.03;;;16.60;98.70;;;;;;5112285;28;19984;-63
2022/03/26 12:28:25;;;;;;;7.78;4.50;;;16.50;98.90;;;;;;5112737;28;20047;-61
2022/03/26 12:30:55;;;;;;;8.80;4.80;;;16.30;99.60;;;;;;5094629;28;20081;-61
2022/03/26 12:33:23;;;;;;;7.70;4.90;;;16.00;99.70;;;;;;5112671;28;20086;-61
2022/03/26 12:35:54;;;;;;;7.40;5.30;;;15.90;99.90;;;;;;5112265;28;20441;-62
2022/03/26 12:38:21;;;;;;;9.85;5.68;;;15.80;99.90;;;;;;5094689;28;20104;-61
2022/03/26 12:40:56;;;;;;;11.93;5.80;;;15.70;99.90;;;;;;5112151;28;20054;-64
2022/03/26 12:43:23;;;;;;;7.80;5.03;;;15.60;99.90;;;;;;5094897;28;20047;-62
2022/03/26 12:45:51;;;;;;;11.07;5.03;;;15.60;99.90;;;;;;5094185;28;20058;-62
2022/03/26 12:48:16;;;;;;;10.30;5.20;;;15.60;99.90;;;;;;5094448;28;20485;-61